sensor_id;sensor_type;location;lat;lon;timestamp;pressure;altitude;pressure_sealevel;temperature;humidity
51829;BME280;37881;48.024;8.774;2022-10-04T00:00:45;94573.22;;;4.94;nan
51829;BME280;37881;48.024;8.774;2022-10-04T00:03:21;94576.69;;;4.91;nan
51829;BME280;37881;48.024;8.774;2022-10-04T00:05:53;94567.78;;;4.94;nan
51829;BME280;37881;48.024;8.774;2022-10-04T00:11:01;94566.38;;;4.58;nan
51829;BME280;37881;48.024;8.774;2022-10-04T00:13:29;94569.59;;;4.64;nan
51829;BME280;37881;48.024;8.774;2022-10-04T00:15:56;94563.31;;;4.59;nan
51829;BME280;37881;48.024;8.774;2022-10-04T00:18:37;94573.25;;;4.52;nan
51829;BME280;37881;48.024;8.774;2022-10-04T00:21:06;94573.59;;;4.50;nan
51829;BME280;37881;48.024;8.774;2022-10-04T00:28:51;94560.41;;;4.49;nan
51829;BME280;37881;48.024;8.774;2022-10-04T00:31:24;94561.19;;;4.49;nan
51829;BME280;37881;48.024;8.774;2022-10-04T00:34:04;94557.00;;;4.55;nan
51829;BME280;37881;48.024;8.774;2022-10-04T00:36:47;94556.66;;;4.57;nan
51829;BME280;37881;48.024;8.774;2022-10-04T00:39:23;94566.97;;;4.28;nan
51829;BME280;37881;48.024;8.774;2022-10-04T00:47:40;94547.41;;;4.19;nan
51829;BME280;37881;48.024;8.774;2022-10-04T00:50:17;94548.84;;;4.13;nan
51829;BME280;37881;48.024;8.774;2022-10-04T00:52:52;94538.84;;;4.17;nan
51829;BME280;37881;48.024;8.774;2022-10-04T00:55:30;94540.00;;;3.96;nan
51829;BME280;37881;48.024;8.774;2022-10-04T00:58:02;94541.13;;;3.95;nan
51829;BME280;37881;48.024;8.774;2022-10-04T01:00:31;94540.13;;;3.84;nan
51829;BME280;37881;48.024;8.774;2022-10-04T01:03:11;94536.47;;;3.96;nan
51829;BME280;37881;48.024;8.774;2022-10-04T01:05:46;94537.56;;;3.91;nan
51829;BME280;37881;48.024;8.774;2022-10-04T01:08:28;94543.66;;;3.85;nan
51829;BME280;37881;48.024;8.774;2022-10-04T01:11:03;94537.50;;;3.88;nan
51829;BME280;37881;48.024;8.774;2022-10-04T01:18:50;94530.69;;;3.78;nan
51829;BME280;37881;48.024;8.774;2022-10-04T01:23:46;94520.69;;;3.82;nan
51829;BME280;37881;48.024;8.774;2022-10-04T01:28:52;94524.00;;;3.91;nan
51829;BME280;37881;48.024;8.774;2022-10-04T01:31:19;94522.41;;;3.90;nan
51829;BME280;37881;48.024;8.774;2022-10-04T01:33:46;94518.56;;;3.91;nan
51829;BME280;37881;48.024;8.774;2022-10-04T01:36:14;94512.28;;;3.87;nan
51829;BME280;37881;48.024;8.774;2022-10-04T01:38:40;94508.28;;;3.81;nan
51829;BME280;37881;48.024;8.774;2022-10-04T01:41:09;94510.22;;;3.80;nan
51829;BME280;37881;48.024;8.774;2022-10-04T01:43:38;94502.25;;;3.72;nan
51829;BME280;37881;48.024;8.774;2022-10-04T01:46:19;94509.97;;;3.70;nan
51829;BME280;37881;48.024;8.774;2022-10-04T01:48:48;94502.41;;;3.59;nan
51829;BME280;37881;48.024;8.774;2022-10-04T01:51:21;94507.84;;;3.59;nan
51829;BME280;37881;48.024;8.774;2022-10-04T01:53:54;94503.06;;;3.53;nan
51829;BME280;37881;48.024;8.774;2022-10-04T01:56:25;94488.75;;;3.56;nan
51829;BME280;37881;48.024;8.774;2022-10-04T01:58:58;94499.41;;;3.45;nan
51829;BME280;37881;48.024;8.774;2022-10-04T02:01:33;94484.94;;;3.22;nan
51829;BME280;37881;48.024;8.774;2022-10-04T02:06:43;94484.31;;;3.28;nan
51829;BME280;37881;48.024;8.774;2022-10-04T02:09:19;94479.81;;;3.36;nan
51829;BME280;37881;48.024;8.774;2022-10-04T02:11:49;94486.59;;;3.26;nan
51829;BME280;37881;48.024;8.774;2022-10-04T02:14:22;94480.97;;;2.99;nan
51829;BME280;37881;48.024;8.774;2022-10-04T02:16:51;94488.84;;;3.05;nan
51829;BME280;37881;48.024;8.774;2022-10-04T02:19:23;94484.84;;;2.98;nan
51829;BME280;37881;48.024;8.774;2022-10-04T02:21:51;94482.69;;;3.08;nan
51829;BME280;37881;48.024;8.774;2022-10-04T02:24:18;94474.13;;;3.06;nan
51829;BME280;37881;48.024;8.774;2022-10-04T02:26:51;94477.78;;;3.13;nan
51829;BME280;37881;48.024;8.774;2022-10-04T02:29:19;94482.88;;;3.15;nan
51829;BME280;37881;48.024;8.774;2022-10-04T02:31:50;94472.91;;;3.03;nan
51829;BME280;37881;48.024;8.774;2022-10-04T02:34:36;94465.38;;;3.12;nan
51829;BME280;37881;48.024;8.774;2022-10-04T02:37:04;94471.16;;;3.11;nan
51829;BME280;37881;48.024;8.774;2022-10-04T02:39:36;94464.69;;;2.99;nan
51829;BME280;37881;48.024;8.774;2022-10-04T02:47:27;94474.97;;;2.90;nan
51829;BME280;37881;48.024;8.774;2022-10-04T02:50:04;94476.19;;;2.93;nan
51829;BME280;37881;48.024;8.774;2022-10-04T02:52:45;94478.88;;;2.93;nan
51829;BME280;37881;48.024;8.774;2022-10-04T02:55:24;94462.78;;;3.00;nan
51829;BME280;37881;48.024;8.774;2022-10-04T02:57:53;94469.69;;;2.97;nan
51829;BME280;37881;48.024;8.774;2022-10-04T03:00:29;94474.75;;;2.99;nan
51829;BME280;37881;48.024;8.774;2022-10-04T03:05:36;94468.59;;;2.67;nan
51829;BME280;37881;48.024;8.774;2022-10-04T03:08:04;94465.56;;;2.52;nan
51829;BME280;37881;48.024;8.774;2022-10-04T03:10:31;94464.59;;;2.60;nan
51829;BME280;37881;48.024;8.774;2022-10-04T03:12:58;94463.00;;;2.59;nan
51829;BME280;37881;48.024;8.774;2022-10-04T03:15:25;94456.69;;;2.71;nan
51829;BME280;37881;48.024;8.774;2022-10-04T03:17:52;94455.38;;;2.81;nan
51829;BME280;37881;48.024;8.774;2022-10-04T03:20:19;94452.59;;;2.77;nan
51829;BME280;37881;48.024;8.774;2022-10-04T03:22:52;94451.47;;;2.78;nan
51829;BME280;37881;48.024;8.774;2022-10-04T03:25:25;94453.22;;;2.71;nan
51829;BME280;37881;48.024;8.774;2022-10-04T03:27:58;94449.00;;;2.73;nan
51829;BME280;37881;48.024;8.774;2022-10-04T03:30:27;94444.03;;;2.75;nan
51829;BME280;37881;48.024;8.774;2022-10-04T03:32:55;94450.25;;;2.76;nan
51829;BME280;37881;48.024;8.774;2022-10-04T03:35:36;94451.38;;;2.75;nan
51829;BME280;37881;48.024;8.774;2022-10-04T03:38:07;94445.97;;;2.59;nan
51829;BME280;37881;48.024;8.774;2022-10-04T03:40:35;94454.44;;;2.57;nan
51829;BME280;37881;48.024;8.774;2022-10-04T03:43:04;94453.22;;;2.55;nan
51829;BME280;37881;48.024;8.774;2022-10-04T03:45:32;94451.03;;;2.60;nan
51829;BME280;37881;48.024;8.774;2022-10-04T03:48:04;94460.28;;;2.59;nan
51829;BME280;37881;48.024;8.774;2022-10-04T03:50:35;94460.38;;;2.63;nan
51829;BME280;37881;48.024;8.774;2022-10-04T03:53:38;94457.34;;;2.65;nan
51829;BME280;37881;48.024;8.774;2022-10-04T03:56:16;94454.44;;;2.73;nan
51829;BME280;37881;48.024;8.774;2022-10-04T03:58:45;94453.56;;;2.69;nan
51829;BME280;37881;48.024;8.774;2022-10-04T04:01:36;94464.06;;;2.71;nan
51829;BME280;37881;48.024;8.774;2022-10-04T04:04:12;94451.28;;;2.71;nan
51829;BME280;37881;48.024;8.774;2022-10-04T04:06:51;94449.19;;;2.65;nan
51829;BME280;37881;48.024;8.774;2022-10-04T04:09:51;94459.16;;;2.60;nan
51829;BME280;37881;48.024;8.774;2022-10-04T04:12:25;94460.41;;;2.47;nan
51829;BME280;37881;48.024;8.774;2022-10-04T04:14:59;94462.56;;;2.57;nan
51829;BME280;37881;48.024;8.774;2022-10-04T04:17:31;94458.53;;;2.67;nan
51829;BME280;37881;48.024;8.774;2022-10-04T04:20:04;94457.69;;;2.63;nan
51829;BME280;37881;48.024;8.774;2022-10-04T04:22:34;94445.72;;;2.64;nan
51829;BME280;37881;48.024;8.774;2022-10-04T04:25:05;94461.25;;;2.67;nan
51829;BME280;37881;48.024;8.774;2022-10-04T04:27:36;94452.34;;;2.67;nan
51829;BME280;37881;48.024;8.774;2022-10-04T04:30:05;94451.13;;;2.64;nan
51829;BME280;37881;48.024;8.774;2022-10-04T04:32:41;94452.69;;;2.65;nan
51829;BME280;37881;48.024;8.774;2022-10-04T04:35:22;94437.59;;;2.64;nan
51829;BME280;37881;48.024;8.774;2022-10-04T04:38:16;94446.06;;;2.63;nan
51829;BME280;37881;48.024;8.774;2022-10-04T04:40:45;94443.44;;;2.66;nan
51829;BME280;37881;48.024;8.774;2022-10-04T04:43:17;94444.31;;;2.70;nan
51829;BME280;37881;48.024;8.774;2022-10-04T04:45:47;94444.03;;;2.59;nan
51829;BME280;37881;48.024;8.774;2022-10-04T04:48:28;94442.13;;;2.60;nan
51829;BME280;37881;48.024;8.774;2022-10-04T04:50:57;94450.78;;;2.66;nan
51829;BME280;37881;48.024;8.774;2022-10-04T04:53:28;94442.28;;;2.67;nan
51829;BME280;37881;48.024;8.774;2022-10-04T04:56:01;94446.50;;;2.65;nan
51829;BME280;37881;48.024;8.774;2022-10-04T04:58:38;94449.63;;;2.67;nan
51829;BME280;37881;48.024;8.774;2022-10-04T05:04:12;94441.28;;;2.56;nan
51829;BME280;37881;48.024;8.774;2022-10-04T05:06:43;94449.31;;;2.52;nan
51829;BME280;37881;48.024;8.774;2022-10-04T05:11:49;94440.47;;;2.55;nan
51829;BME280;37881;48.024;8.774;2022-10-04T05:14:17;94451.47;;;2.63;nan
51829;BME280;37881;48.024;8.774;2022-10-04T05:16:48;94447.66;;;2.64;nan
51829;BME280;37881;48.024;8.774;2022-10-04T05:21:49;94452.88;;;2.72;nan
51829;BME280;37881;48.024;8.774;2022-10-04T05:24:22;94457.00;;;2.66;nan
51829;BME280;37881;48.024;8.774;2022-10-04T05:26:52;94460.38;;;2.63;nan
51829;BME280;37881;48.024;8.774;2022-10-04T05:29:23;94454.81;;;2.40;nan
51829;BME280;37881;48.024;8.774;2022-10-04T05:32:02;94458.66;;;2.55;nan
51829;BME280;37881;48.024;8.774;2022-10-04T05:34:39;94456.38;;;2.57;nan
51829;BME280;37881;48.024;8.774;2022-10-04T05:42:41;94466.75;;;2.71;nan
51829;BME280;37881;48.024;8.774;2022-10-04T05:45:17;94449.38;;;2.72;nan
51829;BME280;37881;48.024;8.774;2022-10-04T05:47:50;94461.75;;;2.89;nan
51829;BME280;37881;48.024;8.774;2022-10-04T05:50:20;94459.28;;;2.99;nan
51829;BME280;37881;48.024;8.774;2022-10-04T05:52:50;94458.59;;;3.03;nan
51829;BME280;37881;48.024;8.774;2022-10-04T05:55:24;94461.50;;;2.94;nan
51829;BME280;37881;48.024;8.774;2022-10-04T06:00:55;94465.16;;;3.21;nan
51829;BME280;37881;48.024;8.774;2022-10-04T06:06:44;94466.94;;;2.78;nan
51829;BME280;37881;48.024;8.774;2022-10-04T06:12:16;94469.19;;;2.92;nan
51829;BME280;37881;48.024;8.774;2022-10-04T06:23:22;94478.47;;;3.65;nan
51829;BME280;37881;48.024;8.774;2022-10-04T06:25:57;94486.97;;;3.83;nan
51829;BME280;37881;48.024;8.774;2022-10-04T06:28:34;94469.81;;;3.98;nan
51829;BME280;37881;48.024;8.774;2022-10-04T06:47:21;94489.69;;;4.03;nan
51829;BME280;37881;48.024;8.774;2022-10-04T06:56:22;94489.94;;;4.86;nan
51829;BME280;37881;48.024;8.774;2022-10-04T07:01:32;94487.19;;;5.09;nan
51829;BME280;37881;48.024;8.774;2022-10-04T07:12:28;94509.38;;;6.32;nan
51829;BME280;37881;48.024;8.774;2022-10-04T07:15:00;94513.25;;;7.90;nan
51829;BME280;37881;48.024;8.774;2022-10-04T07:17:41;94508.06;;;9.48;nan
51829;BME280;37881;48.024;8.774;2022-10-04T07:20:29;94515.63;;;10.39;nan
51829;BME280;37881;48.024;8.774;2022-10-04T07:23:03;94509.59;;;12.70;nan
51829;BME280;37881;48.024;8.774;2022-10-04T07:25:41;94511.13;;;13.26;nan
51829;BME280;37881;48.024;8.774;2022-10-04T07:28:16;94511.88;;;12.75;nan
51829;BME280;37881;48.024;8.774;2022-10-04T07:31:11;94506.78;;;14.55;nan
51829;BME280;37881;48.024;8.774;2022-10-04T07:33:48;94513.94;;;13.93;nan
51829;BME280;37881;48.024;8.774;2022-10-04T07:36:23;94509.31;;;13.86;nan
51829;BME280;37881;48.024;8.774;2022-10-04T07:39:03;94501.81;;;13.43;nan
51829;BME280;37881;48.024;8.774;2022-10-04T07:41:42;94500.91;;;14.53;nan
51829;BME280;37881;48.024;8.774;2022-10-04T07:44:17;94494.97;;;14.75;nan
51829;BME280;37881;48.024;8.774;2022-10-04T07:46:53;94497.66;;;13.78;nan
51829;BME280;37881;48.024;8.774;2022-10-04T07:49:21;94504.31;;;12.79;nan
51829;BME280;37881;48.024;8.774;2022-10-04T07:52:48;94491.22;;;11.98;nan
51829;BME280;37881;48.024;8.774;2022-10-04T08:00:25;94482.13;;;12.63;nan
51829;BME280;37881;48.024;8.774;2022-10-04T08:05:38;94490.06;;;11.96;nan
51829;BME280;37881;48.024;8.774;2022-10-04T08:14:09;94495.97;;;13.85;nan
51829;BME280;37881;48.024;8.774;2022-10-04T08:25:03;94486.97;;;17.05;nan
51829;BME280;37881;48.024;8.774;2022-10-04T08:31:10;94479.19;;;17.99;nan
51829;BME280;37881;48.024;8.774;2022-10-04T08:37:07;94486.38;;;15.38;nan
51829;BME280;37881;48.024;8.774;2022-10-04T08:49:29;94478.22;;;14.26;nan
51829;BME280;37881;48.024;8.774;2022-10-04T09:04:14;94486.66;;;13.55;nan
51829;BME280;37881;48.024;8.774;2022-10-04T09:13:04;94492.81;;;14.83;nan
51829;BME280;37881;48.024;8.774;2022-10-04T09:34:28;94491.66;;;15.49;nan
51829;BME280;37881;48.024;8.774;2022-10-04T09:37:39;94487.72;;;15.63;nan
51829;BME280;37881;48.024;8.774;2022-10-04T09:46:16;94495.00;;;18.77;nan
51829;BME280;37881;48.024;8.774;2022-10-04T10:00:47;94489.22;;;21.28;nan
51829;BME280;37881;48.024;8.774;2022-10-04T10:19:41;94477.72;;;23.16;nan
51829;BME280;37881;48.024;8.774;2022-10-04T10:22:50;94472.09;;;24.01;nan
51829;BME280;37881;48.024;8.774;2022-10-04T10:25:29;94470.06;;;23.81;nan
51829;BME280;37881;48.024;8.774;2022-10-04T10:36:40;94470.81;;;21.79;nan
51829;BME280;37881;48.024;8.774;2022-10-04T10:45:28;94455.66;;;24.82;nan
51829;BME280;37881;48.024;8.774;2022-10-04T10:48:28;94456.66;;;25.10;nan
51829;BME280;37881;48.024;8.774;2022-10-04T11:11:42;94456.06;;;25.64;nan
51829;BME280;37881;48.024;8.774;2022-10-04T11:27:15;94451.44;;;22.53;nan
51829;BME280;37881;48.024;8.774;2022-10-04T11:41:55;94438.69;;;18.86;nan
51829;BME280;37881;48.024;8.774;2022-10-04T11:44:42;94438.84;;;17.60;nan
51829;BME280;37881;48.024;8.774;2022-10-04T11:58:51;94427.88;;;17.91;nan
51829;BME280;37881;48.024;8.774;2022-10-04T12:01:35;94425.56;;;17.76;nan
51829;BME280;37881;48.024;8.774;2022-10-04T12:15:45;94423.56;;;17.42;nan
51829;BME280;37881;48.024;8.774;2022-10-04T12:21:23;94411.91;;;17.47;nan
51829;BME280;37881;48.024;8.774;2022-10-04T12:40:33;94408.03;;;17.80;nan
51829;BME280;37881;48.024;8.774;2022-10-04T12:46:22;94411.28;;;18.00;nan
51829;BME280;37881;48.024;8.774;2022-10-04T12:52:14;94403.00;;;18.31;nan
51829;BME280;37881;48.024;8.774;2022-10-04T12:54:51;94406.78;;;18.47;nan
51829;BME280;37881;48.024;8.774;2022-10-04T12:57:33;94404.44;;;17.92;nan
51829;BME280;37881;48.024;8.774;2022-10-04T13:00:25;94404.22;;;17.51;nan
51829;BME280;37881;48.024;8.774;2022-10-04T13:16:57;94403.63;;;17.34;nan
51829;BME280;37881;48.024;8.774;2022-10-04T13:23:02;94418.31;;;17.57;nan
51829;BME280;37881;48.024;8.774;2022-10-04T13:28:53;94413.91;;;17.47;nan
51829;BME280;37881;48.024;8.774;2022-10-04T13:31:58;94412.59;;;17.73;nan
51829;BME280;37881;48.024;8.774;2022-10-04T13:37:28;94417.13;;;17.80;nan
51829;BME280;37881;48.024;8.774;2022-10-04T13:48:20;94411.47;;;17.49;nan
51829;BME280;37881;48.024;8.774;2022-10-04T14:08:11;94429.25;;;17.73;nan
51829;BME280;37881;48.024;8.774;2022-10-04T14:16:54;94424.78;;;17.89;nan
51829;BME280;37881;48.024;8.774;2022-10-04T14:20:09;94428.53;;;17.95;nan
51829;BME280;37881;48.024;8.774;2022-10-04T14:28:34;94434.00;;;17.86;nan
51829;BME280;37881;48.024;8.774;2022-10-04T14:48:48;94415.59;;;17.31;nan
51829;BME280;37881;48.024;8.774;2022-10-04T14:51:29;94420.50;;;17.27;nan
51829;BME280;37881;48.024;8.774;2022-10-04T14:59:44;94408.03;;;17.45;nan
51829;BME280;37881;48.024;8.774;2022-10-04T15:07:55;94400.41;;;17.23;nan
51829;BME280;37881;48.024;8.774;2022-10-04T15:10:30;94405.78;;;16.92;nan
51829;BME280;37881;48.024;8.774;2022-10-04T15:13:19;94410.81;;;16.84;nan
51829;BME280;37881;48.024;8.774;2022-10-04T15:24:42;94403.00;;;16.66;nan
51829;BME280;37881;48.024;8.774;2022-10-04T15:35:23;94397.97;;;16.35;nan
51829;BME280;37881;48.024;8.774;2022-10-04T15:40:56;94393.88;;;16.27;nan
51829;BME280;37881;48.024;8.774;2022-10-04T15:43:36;94399.06;;;16.12;nan
51829;BME280;37881;48.024;8.774;2022-10-04T15:51:49;94393.47;;;15.41;nan
51829;BME280;37881;48.024;8.774;2022-10-04T15:55:09;94396.97;;;15.12;nan
51829;BME280;37881;48.024;8.774;2022-10-04T16:10:58;94408.44;;;14.25;nan
51829;BME280;37881;48.024;8.774;2022-10-04T16:13:37;94404.03;;;14.28;nan
51829;BME280;37881;48.024;8.774;2022-10-04T16:18:45;94401.00;;;14.02;nan
51829;BME280;37881;48.024;8.774;2022-10-04T16:38:22;94412.53;;;13.37;nan
51829;BME280;37881;48.024;8.774;2022-10-04T16:48:56;94413.22;;;12.94;nan
51829;BME280;37881;48.024;8.774;2022-10-04T16:54:55;94437.75;;;12.85;nan
51829;BME280;37881;48.024;8.774;2022-10-04T16:57:25;94436.31;;;12.76;nan
51829;BME280;37881;48.024;8.774;2022-10-04T16:59:58;94438.88;;;12.64;nan
51829;BME280;37881;48.024;8.774;2022-10-04T17:05:29;94437.97;;;12.43;nan
51829;BME280;37881;48.024;8.774;2022-10-04T17:08:16;94443.22;;;12.34;nan
51829;BME280;37881;48.024;8.774;2022-10-04T17:13:54;94454.06;;;12.17;nan
51829;BME280;37881;48.024;8.774;2022-10-04T17:16:36;94450.97;;;12.12;nan
51829;BME280;37881;48.024;8.774;2022-10-04T17:19:14;94450.31;;;12.01;nan
51829;BME280;37881;48.024;8.774;2022-10-04T17:32:52;94466.94;;;11.52;nan
51829;BME280;37881;48.024;8.774;2022-10-04T17:47:09;94486.22;;;11.03;nan
51829;BME280;37881;48.024;8.774;2022-10-04T17:50:02;94484.34;;;10.89;nan
51829;BME280;37881;48.024;8.774;2022-10-04T17:52:59;94477.78;;;10.76;nan
51829;BME280;37881;48.024;8.774;2022-10-04T17:55:57;94468.78;;;10.72;nan
51829;BME280;37881;48.024;8.774;2022-10-04T17:58:45;94455.94;;;10.58;nan
51829;BME280;37881;48.024;8.774;2022-10-04T18:01:50;94463.03;;;10.52;nan
51829;BME280;37881;48.024;8.774;2022-10-04T18:04:24;94467.78;;;10.44;nan
51829;BME280;37881;48.024;8.774;2022-10-04T18:07:07;94458.44;;;10.34;nan
51829;BME280;37881;48.024;8.774;2022-10-04T18:09:46;94445.13;;;10.26;nan
51829;BME280;37881;48.024;8.774;2022-10-04T18:12:49;94453.38;;;10.22;nan
51829;BME280;37881;48.024;8.774;2022-10-04T18:15:21;94446.81;;;10.05;nan
51829;BME280;37881;48.024;8.774;2022-10-04T18:18:16;94447.63;;;9.95;nan
51829;BME280;37881;48.024;8.774;2022-10-04T18:23:16;94447.25;;;9.96;nan
51829;BME280;37881;48.024;8.774;2022-10-04T18:25:44;94442.13;;;9.98;nan
51829;BME280;37881;48.024;8.774;2022-10-04T18:28:19;94440.19;;;9.95;nan
51829;BME280;37881;48.024;8.774;2022-10-04T18:33:16;94442.22;;;9.80;nan
51829;BME280;37881;48.024;8.774;2022-10-04T18:38:41;94460.22;;;9.82;nan
51829;BME280;37881;48.024;8.774;2022-10-04T18:46:36;94456.38;;;9.61;nan
51829;BME280;37881;48.024;8.774;2022-10-04T18:49:23;94466.56;;;9.57;nan
51829;BME280;37881;48.024;8.774;2022-10-04T18:54:48;94464.25;;;9.45;nan
51829;BME280;37881;48.024;8.774;2022-10-04T18:57:37;94452.91;;;9.35;nan
51829;BME280;37881;48.024;8.774;2022-10-04T19:00:29;94462.31;;;9.27;nan
51829;BME280;37881;48.024;8.774;2022-10-04T19:03:45;94464.66;;;9.25;nan
51829;BME280;37881;48.024;8.774;2022-10-04T19:06:27;94458.00;;;9.23;nan
51829;BME280;37881;48.024;8.774;2022-10-04T19:09:25;94462.72;;;9.11;nan
51829;BME280;37881;48.024;8.774;2022-10-04T19:12:01;94464.69;;;9.04;nan
51829;BME280;37881;48.024;8.774;2022-10-04T19:17:28;94476.81;;;8.99;nan
51829;BME280;37881;48.024;8.774;2022-10-04T19:20:05;94485.41;;;8.94;nan
51829;BME280;37881;48.024;8.774;2022-10-04T19:22:48;94484.63;;;8.90;nan
51829;BME280;37881;48.024;8.774;2022-10-04T19:25:35;94487.75;;;8.85;nan
51829;BME280;37881;48.024;8.774;2022-10-04T19:28:12;94485.78;;;8.71;nan
51829;BME280;37881;48.024;8.774;2022-10-04T19:31:15;94485.41;;;8.72;nan
51829;BME280;37881;48.024;8.774;2022-10-04T19:37:08;94503.00;;;8.68;nan
51829;BME280;37881;48.024;8.774;2022-10-04T19:42:51;94502.97;;;8.60;nan
51829;BME280;37881;48.024;8.774;2022-10-04T19:45:58;94508.44;;;8.57;nan
51829;BME280;37881;48.024;8.774;2022-10-04T19:48:31;94509.22;;;8.50;nan
51829;BME280;37881;48.024;8.774;2022-10-04T19:51:08;94514.28;;;8.48;nan
51829;BME280;37881;48.024;8.774;2022-10-04T19:53:43;94515.44;;;8.44;nan
51829;BME280;37881;48.024;8.774;2022-10-04T19:56:17;94518.53;;;8.38;nan
51829;BME280;37881;48.024;8.774;2022-10-04T19:58:56;94507.56;;;8.35;nan
51829;BME280;37881;48.024;8.774;2022-10-04T20:01:27;94516.16;;;8.30;nan
51829;BME280;37881;48.024;8.774;2022-10-04T20:03:55;94504.81;;;8.28;nan
51829;BME280;37881;48.024;8.774;2022-10-04T20:06:49;94505.19;;;8.19;nan
51829;BME280;37881;48.024;8.774;2022-10-04T20:12:04;94510.59;;;8.05;nan
51829;BME280;37881;48.024;8.774;2022-10-04T20:21:54;94501.94;;;7.88;nan
51829;BME280;37881;48.024;8.774;2022-10-04T20:27:03;94500.00;;;7.85;nan
51829;BME280;37881;48.024;8.774;2022-10-04T20:32:06;94505.41;;;7.78;nan
51829;BME280;37881;48.024;8.774;2022-10-04T20:34:47;94506.97;;;7.79;nan
51829;BME280;37881;48.024;8.774;2022-10-04T20:37:14;94511.63;;;7.71;nan
51829;BME280;37881;48.024;8.774;2022-10-04T20:42:27;94513.19;;;7.69;nan
51829;BME280;37881;48.024;8.774;2022-10-04T20:44:57;94511.59;;;7.68;nan
51829;BME280;37881;48.024;8.774;2022-10-04T20:49:54;94508.03;;;7.60;nan
51829;BME280;37881;48.024;8.774;2022-10-04T20:52:27;94515.81;;;7.54;nan
51829;BME280;37881;48.024;8.774;2022-10-04T20:54:55;94523.22;;;7.54;nan
51829;BME280;37881;48.024;8.774;2022-10-04T20:57:24;94524.38;;;7.49;nan
51829;BME280;37881;48.024;8.774;2022-10-04T20:59:53;94521.66;;;7.49;nan
51829;BME280;37881;48.024;8.774;2022-10-04T21:02:22;94529.44;;;7.47;nan
51829;BME280;37881;48.024;8.774;2022-10-04T21:04:50;94532.50;;;7.38;nan
51829;BME280;37881;48.024;8.774;2022-10-04T21:07:21;94532.84;;;7.33;nan
51829;BME280;37881;48.024;8.774;2022-10-04T21:09:49;94531.97;;;7.22;nan
51829;BME280;37881;48.024;8.774;2022-10-04T21:15:05;94548.84;;;7.35;nan
51829;BME280;37881;48.024;8.774;2022-10-04T21:17:34;94542.69;;;7.45;nan
51829;BME280;37881;48.024;8.774;2022-10-04T21:20:02;94545.81;;;7.47;nan
51829;BME280;37881;48.024;8.774;2022-10-04T21:22:32;94545.00;;;7.43;nan
51829;BME280;37881;48.024;8.774;2022-10-04T21:27:45;94559.41;;;7.40;nan
51829;BME280;37881;48.024;8.774;2022-10-04T21:30:14;94550.47;;;7.43;nan
51829;BME280;37881;48.024;8.774;2022-10-04T21:32:41;94553.50;;;7.34;nan
51829;BME280;37881;48.024;8.774;2022-10-04T21:35:08;94557.09;;;7.42;nan
51829;BME280;37881;48.024;8.774;2022-10-04T21:37:35;94558.69;;;7.50;nan
51829;BME280;37881;48.024;8.774;2022-10-04T21:40:03;94557.16;;;7.49;nan
51829;BME280;37881;48.024;8.774;2022-10-04T21:42:31;94566.56;;;7.55;nan
51829;BME280;37881;48.024;8.774;2022-10-04T21:44:58;94564.25;;;7.61;nan
51829;BME280;37881;48.024;8.774;2022-10-04T21:47:24;94559.16;;;7.59;nan
51829;BME280;37881;48.024;8.774;2022-10-04T21:49:51;94563.03;;;7.55;nan
51829;BME280;37881;48.024;8.774;2022-10-04T21:52:19;94563.03;;;7.58;nan
51829;BME280;37881;48.024;8.774;2022-10-04T21:54:46;94552.56;;;7.68;nan
51829;BME280;37881;48.024;8.774;2022-10-04T21:57:12;94556.78;;;7.54;nan
51829;BME280;37881;48.024;8.774;2022-10-04T21:59:39;94560.63;;;7.46;nan
51829;BME280;37881;48.024;8.774;2022-10-04T22:02:06;94559.78;;;7.35;nan
51829;BME280;37881;48.024;8.774;2022-10-04T22:04:33;94564.81;;;7.29;nan
51829;BME280;37881;48.024;8.774;2022-10-04T22:07:00;94570.59;;;7.20;nan
51829;BME280;37881;48.024;8.774;2022-10-04T22:09:27;94566.09;;;7.43;nan
51829;BME280;37881;48.024;8.774;2022-10-04T22:11:54;94562.25;;;7.54;nan
51829;BME280;37881;48.024;8.774;2022-10-04T22:14:21;94565.44;;;7.64;nan
51829;BME280;37881;48.024;8.774;2022-10-04T22:16:48;94558.81;;;7.65;nan
51829;BME280;37881;48.024;8.774;2022-10-04T22:19:15;94565.44;;;7.64;nan
51829;BME280;37881;48.024;8.774;2022-10-04T22:21:42;94559.22;;;7.70;nan
51829;BME280;37881;48.024;8.774;2022-10-04T22:24:15;94557.78;;;7.32;nan
51829;BME280;37881;48.024;8.774;2022-10-04T22:26:42;94558.56;;;7.29;nan
51829;BME280;37881;48.024;8.774;2022-10-04T22:29:14;94551.91;;;7.26;nan
51829;BME280;37881;48.024;8.774;2022-10-04T22:31:45;94558.63;;;7.39;nan
51829;BME280;37881;48.024;8.774;2022-10-04T22:34:16;94562.16;;;7.40;nan
51829;BME280;37881;48.024;8.774;2022-10-04T22:36:45;94558.53;;;7.25;nan
51829;BME280;37881;48.024;8.774;2022-10-04T22:39:16;94563.56;;;7.19;nan
51829;BME280;37881;48.024;8.774;2022-10-04T22:41:47;94558.91;;;7.24;nan
51829;BME280;37881;48.024;8.774;2022-10-04T22:44:21;94570.31;;;7.33;nan
51829;BME280;37881;48.024;8.774;2022-10-04T22:46:51;94559.72;;;7.28;nan
51829;BME280;37881;48.024;8.774;2022-10-04T22:49:21;94564.84;;;7.33;nan
51829;BME280;37881;48.024;8.774;2022-10-04T22:51:49;94566.34;;;7.27;nan
51829;BME280;37881;48.024;8.774;2022-10-04T22:54:23;94565.63;;;7.33;nan
51829;BME280;37881;48.024;8.774;2022-10-04T22:56:51;94561.28;;;7.29;nan
51829;BME280;37881;48.024;8.774;2022-10-04T22:59:19;94559.72;;;7.28;nan
51829;BME280;37881;48.024;8.774;2022-10-04T23:01:47;94556.94;;;7.20;nan
51829;BME280;37881;48.024;8.774;2022-10-04T23:04:21;94555.84;;;7.29;nan
51829;BME280;37881;48.024;8.774;2022-10-04T23:06:48;94544.91;;;7.29;nan
51829;BME280;37881;48.024;8.774;2022-10-04T23:09:15;94550.34;;;7.25;nan
51829;BME280;37881;48.024;8.774;2022-10-04T23:11:43;94544.81;;;7.14;nan
51829;BME280;37881;48.024;8.774;2022-10-04T23:14:10;94549.75;;;7.02;nan
51829;BME280;37881;48.024;8.774;2022-10-04T23:16:37;94539.63;;;7.02;nan
51829;BME280;37881;48.024;8.774;2022-10-04T23:19:17;94539.50;;;6.84;nan
51829;BME280;37881;48.024;8.774;2022-10-04T23:21:48;94535.56;;;6.82;nan
51829;BME280;37881;48.024;8.774;2022-10-04T23:24:18;94533.66;;;6.89;nan
51829;BME280;37881;48.024;8.774;2022-10-04T23:26:48;94530.97;;;6.93;nan
51829;BME280;37881;48.024;8.774;2022-10-04T23:31:48;94530.44;;;6.76;nan
51829;BME280;37881;48.024;8.774;2022-10-04T23:34:19;94529.34;;;6.85;nan